Weather at Asosa Airport

Public forecast

Using degrees Celsius for public forecast. Weather courtesy of forecast.io.

Closest aviation weather report (METAR) to Asosa Airport

Report is more than 6 hours old.

Closest report is Addis Ababa Bole International Airport, 257.2 nm (476.3 km) ESE.

2022/11/14 15:00 (retrieved 2 years ago)

HAAB 141500Z 09008KT 9999 FEW025 20/09Q1026 NOSIG

Closest aviation forecast (TAF) to Asosa Airport

Forecast is more than 12 hours old.

Closest forecast is Bahir Dar Airport, 187.4 nm (347.1 km) ENE.

2023/02/22 18:20 (retrieved 1 year ago)

TAF HAAB 221530Z 2218/2324 VRB04KT 9999 FEW020 FEW070 TAF HABD 221530Z 2218/2324 VRB08KT CAVOK